createdAt,value
2024-05-09T00:00:37.888Z,52.5
2024-05-09T00:01:40.594Z,52.5
2024-05-09T00:02:50.381Z,52.7
2024-05-09T00:04:00.331Z,52.9
2024-05-09T00:05:10.667Z,53
2024-05-09T00:06:20.159Z,52.5
2024-05-09T00:07:30.610Z,52.3
2024-05-09T00:08:40.471Z,52.4
2024-05-09T00:09:50.138Z,52.7
2024-05-09T00:11:00.377Z,52.9
2024-05-09T00:12:10.544Z,53
2024-05-09T00:13:20.143Z,52.5
2024-05-09T00:14:30.286Z,52.3
2024-05-09T00:15:40.139Z,52.4
2024-05-09T00:16:50.650Z,52.6
2024-05-09T00:18:00.766Z,52.9
2024-05-09T00:19:10.685Z,53.1
2024-05-09T00:20:33.161Z,52.7
2024-05-09T00:21:38.551Z,52.5
2024-05-09T00:22:48.571Z,52.6
2024-05-09T00:23:58.573Z,52.8
2024-05-09T00:25:08.738Z,53
2024-05-09T00:26:18.726Z,53
2024-05-09T00:27:28.607Z,52.6
2024-05-09T00:28:38.561Z,52.5
2024-05-09T00:29:48.810Z,52.5
2024-05-09T00:30:58.527Z,52.8
2024-05-09T00:32:08.792Z,53
2024-05-09T00:33:19.369Z,52.9
2024-05-09T00:34:29.105Z,52.5
2024-05-09T00:35:39.257Z,52.3
2024-05-09T00:36:48.545Z,52.4
2024-05-09T00:37:58.711Z,52.7
2024-05-09T00:39:08.533Z,52.9
2024-05-09T00:40:35.582Z,52.9
2024-05-09T00:41:40.219Z,52.5
2024-05-09T00:42:50.055Z,52.3
2024-05-09T00:44:00.246Z,52.5
2024-05-09T00:45:10.035Z,52.7
2024-05-09T00:46:20.014Z,53
2024-05-09T00:47:30.471Z,52.7
2024-05-09T00:48:40.652Z,52.4
2024-05-09T00:49:50.231Z,52.3
2024-05-09T00:51:00.114Z,52.5
2024-05-09T00:52:10.060Z,52.7
2024-05-09T00:53:20.227Z,52.9
2024-05-09T00:54:30.026Z,52.6
2024-05-09T00:55:40.162Z,52.3
2024-05-09T00:56:50.439Z,52.3
2024-05-09T00:58:00.488Z,52.5
2024-05-09T00:59:10.632Z,52.7
2024-05-09T01:00:35.882Z,52.9
2024-05-09T01:01:40.156Z,52.4
2024-05-09T01:02:50.370Z,52.2
2024-05-09T01:04:00.244Z,52.3
2024-05-09T01:05:10.448Z,52.5
2024-05-09T01:06:19.952Z,52.8
2024-05-09T01:07:29.947Z,52.8
2024-05-09T01:08:40.092Z,52.4
2024-05-09T01:09:49.938Z,52.2
2024-05-09T01:11:00.194Z,52.3
2024-05-09T01:12:10.604Z,52.5
2024-05-09T01:13:19.955Z,52.8
2024-05-09T01:14:30.150Z,52.8
2024-05-09T01:15:40.125Z,52.3
2024-05-09T01:16:50.116Z,52.2
2024-05-09T01:18:00.590Z,52.3
2024-05-09T01:19:10.209Z,52.5
2024-05-09T01:20:35.952Z,52.8
2024-05-09T01:21:40.711Z,52.6
2024-05-09T01:22:50.870Z,52.2
2024-05-09T01:24:00.749Z,52.2
2024-05-09T01:25:10.712Z,52.3
2024-05-09T01:26:20.847Z,52.6
2024-05-09T01:27:30.714Z,52.8
2024-05-09T01:28:40.811Z,52.6
2024-05-09T01:29:50.722Z,52.2
2024-05-09T01:31:00.728Z,52.2
2024-05-09T01:32:11.038Z,52.3
2024-05-09T01:33:21.084Z,52.6
2024-05-09T01:34:30.788Z,52.8
2024-05-09T01:35:43.032Z,52.5
2024-05-09T01:36:50.693Z,52.2
2024-05-09T01:38:00.895Z,52.2
2024-05-09T01:39:10.711Z,52.4
2024-05-09T01:40:35.809Z,52.6
2024-05-09T01:41:39.307Z,52.7
2024-05-09T01:42:49.133Z,52.3
2024-05-09T01:43:59.289Z,52.1
2024-05-09T01:45:09.115Z,52.2
2024-05-09T01:46:19.125Z,52.5
2024-05-09T01:47:29.666Z,52.7
2024-05-09T01:48:39.375Z,52.7
2024-05-09T01:49:49.283Z,52.2
2024-05-09T01:50:59.211Z,52.1
2024-05-09T01:52:09.131Z,52.2
2024-05-09T01:53:19.250Z,52.4
2024-05-09T01:54:29.120Z,52.7
2024-05-09T01:55:39.401Z,52.6
2024-05-09T01:56:49.441Z,52.1
2024-05-09T01:57:59.350Z,52
2024-05-09T01:59:09.349Z,52.2
2024-05-09T02:00:37.761Z,52.4
2024-05-09T02:01:57.863Z,52.7
2024-05-09T02:02:58.907Z,52.4
2024-05-09T02:04:09.112Z,52.1
2024-05-09T02:05:19.048Z,52.1
2024-05-09T02:06:28.547Z,52.2
2024-05-09T02:07:38.503Z,52.5
2024-05-09T02:08:48.515Z,52.7
2024-05-09T02:09:58.506Z,52.3
2024-05-09T02:11:08.807Z,52
2024-05-09T02:12:18.970Z,52.1
2024-05-09T02:13:28.670Z,52.3
2024-05-09T02:14:38.743Z,52.5
2024-05-09T02:15:48.500Z,52.6
2024-05-09T02:16:58.678Z,52.2
2024-05-09T02:18:09.455Z,51.9
2024-05-09T02:19:19.158Z,52
2024-05-09T02:20:36.856Z,52.2
2024-05-09T02:21:38.507Z,52.4
2024-05-09T02:22:48.699Z,52.5
2024-05-09T02:23:58.503Z,52.1
2024-05-09T02:25:08.545Z,51.8
2024-05-09T02:26:18.739Z,51.9
2024-05-09T02:27:28.493Z,52.1
2024-05-09T02:28:38.495Z,52.4
2024-05-09T02:29:48.553Z,52.5
2024-05-09T02:30:58.508Z,52
2024-05-09T02:32:08.912Z,51.8
2024-05-09T02:33:18.925Z,51.9
2024-05-09T02:34:28.724Z,52.2
2024-05-09T02:35:38.678Z,52.4
2024-05-09T02:36:48.496Z,52.2
2024-05-09T02:37:58.662Z,51.8
2024-05-09T02:39:08.513Z,51.7
2024-05-09T02:40:33.188Z,51.9
2024-05-09T02:41:37.658Z,52.2
2024-05-09T02:42:47.589Z,52.4
2024-05-09T02:43:57.675Z,52.2
2024-05-09T02:45:07.599Z,51.9
2024-05-09T02:46:17.486Z,51.9
2024-05-09T02:47:27.988Z,52
2024-05-09T02:48:37.911Z,52.3
2024-05-09T02:49:47.684Z,52.4
2024-05-09T02:50:57.701Z,52
2024-05-09T02:52:07.467Z,51.7
2024-05-09T02:53:17.730Z,51.8
2024-05-09T02:54:27.483Z,52.1
2024-05-09T02:55:37.492Z,52.3
2024-05-09T02:56:47.486Z,52.3
2024-05-09T02:57:57.627Z,51.9
2024-05-09T02:59:07.566Z,51.7
2024-05-09T03:00:29.083Z,51.9
2024-05-09T03:01:35.712Z,52.1
2024-05-09T03:02:45.818Z,52.4
2024-05-09T03:03:55.961Z,52.1
2024-05-09T03:05:05.567Z,51.6
2024-05-09T03:06:15.598Z,51.6
2024-05-09T03:07:25.524Z,51.8
2024-05-09T03:08:35.826Z,52.1
2024-05-09T03:09:45.473Z,52.3
2024-05-09T03:10:55.667Z,52
2024-05-09T03:12:05.903Z,51.7
2024-05-09T03:13:16.748Z,51.7
2024-05-09T03:14:25.717Z,51.9
2024-05-09T03:15:35.476Z,52.2
2024-05-09T03:16:45.696Z,52.3
2024-05-09T03:17:55.839Z,51.8
2024-05-09T03:19:05.773Z,51.6
2024-05-09T03:20:27.559Z,51.7
2024-05-09T03:21:32.676Z,52
2024-05-09T03:22:42.665Z,52.2
2024-05-09T03:23:52.821Z,52.1
2024-05-09T03:25:02.656Z,51.6
2024-05-09T03:26:13.044Z,51.5
2024-05-09T03:27:22.643Z,51.7
2024-05-09T03:28:32.656Z,52
2024-05-09T03:29:42.647Z,52.2
2024-05-09T03:30:52.675Z,51.9
2024-05-09T03:32:02.827Z,51.5
2024-05-09T03:33:15.162Z,51.5
2024-05-09T03:34:22.796Z,51.7
2024-05-09T03:35:32.858Z,52
2024-05-09T03:36:42.650Z,52.2
2024-05-09T03:37:52.817Z,51.9
2024-05-09T03:39:02.638Z,51.5
2024-05-09T03:40:23.998Z,51.5
2024-05-09T03:41:27.024Z,51.7
2024-05-09T03:42:36.951Z,52
2024-05-09T03:43:47.145Z,52.2
2024-05-09T03:44:57.006Z,51.8
2024-05-09T03:46:06.961Z,51.5
2024-05-09T03:47:17.292Z,51.5
2024-05-09T03:48:27.268Z,51.7
2024-05-09T03:49:37.047Z,52
2024-05-09T03:50:47.341Z,52.2
2024-05-09T03:51:56.949Z,51.7
2024-05-09T03:53:07.024Z,51.5
2024-05-09T03:54:16.992Z,51.6
2024-05-09T03:55:26.983Z,51.9
2024-05-09T03:56:37.095Z,52.1
2024-05-09T03:57:46.952Z,52
2024-05-09T03:58:57.153Z,51.6
2024-05-09T04:00:17.998Z,51.5
2024-05-09T04:01:26.270Z,51.7
2024-05-09T04:02:36.495Z,52
2024-05-09T04:03:46.618Z,52.2
2024-05-09T04:04:56.206Z,51.8
2024-05-09T04:06:06.090Z,51.5
2024-05-09T04:07:16.076Z,51.5
2024-05-09T04:08:26.263Z,51.8
2024-05-09T04:09:36.075Z,52.1
2024-05-09T04:10:46.337Z,52.1
2024-05-09T04:11:56.435Z,51.6
2024-05-09T04:13:06.167Z,51.5
2024-05-09T04:14:16.110Z,51.6
2024-05-09T04:15:26.065Z,51.8
2024-05-09T04:16:36.085Z,52.1
2024-05-09T04:17:46.397Z,52
2024-05-09T04:18:56.434Z,51.6
2024-05-09T04:20:08.513Z,51.6
2024-05-09T04:21:16.337Z,51.8
2024-05-09T04:22:26.094Z,52
2024-05-09T04:23:36.325Z,52.2
2024-05-09T04:24:46.058Z,51.8
2024-05-09T04:25:56.252Z,51.6
2024-05-09T04:27:06.253Z,51.7
2024-05-09T04:28:16.066Z,51.9
2024-05-09T04:29:26.304Z,52.2
2024-05-09T04:30:41.454Z,52
2024-05-09T04:31:46.240Z,51.6
2024-05-09T04:32:56.417Z,51.5
2024-05-09T04:34:06.700Z,51.7
2024-05-09T04:35:16.273Z,52
2024-05-09T04:36:26.107Z,52.2
2024-05-09T04:37:36.054Z,51.7
2024-05-09T04:38:46.132Z,51.5
2024-05-09T04:39:56.074Z,51.6
2024-05-09T04:41:06.266Z,51.8
2024-05-09T04:42:16.051Z,52.1
2024-05-09T04:43:26.034Z,52.1
2024-05-09T04:44:36.234Z,51.6
2024-05-09T04:45:46.077Z,51.4
2024-05-09T04:46:56.152Z,51.5
2024-05-09T04:48:06.610Z,51.8
2024-05-09T04:49:16.538Z,52.1
2024-05-09T04:50:38.490Z,52
2024-05-09T04:51:40.077Z,51.6
2024-05-09T04:52:50.207Z,51.5
2024-05-09T04:54:00.050Z,51.7
2024-05-09T04:55:10.084Z,51.9
2024-05-09T04:56:20.196Z,52.1
2024-05-09T04:57:30.326Z,51.7
2024-05-09T04:58:40.074Z,51.4
2024-05-09T04:59:51.484Z,51.5
2024-05-09T05:01:00.893Z,51.7
2024-05-09T05:02:10.327Z,52
2024-05-09T05:03:20.775Z,52
2024-05-09T05:04:30.129Z,51.5
2024-05-09T05:05:40.247Z,51.4
2024-05-09T05:06:50.068Z,51.5
2024-05-09T05:08:00.257Z,51.8
2024-05-09T05:09:10.044Z,52
2024-05-09T05:10:32.981Z,51.7
2024-05-09T05:11:36.319Z,51.4
2024-05-09T05:12:46.009Z,51.5
2024-05-09T05:13:56.146Z,51.7
2024-05-09T05:15:05.995Z,51.9
2024-05-09T05:16:15.994Z,51.9
2024-05-09T05:17:26.227Z,51.4
2024-05-09T05:18:36.348Z,51.3
2024-05-09T05:19:46.793Z,51.5
2024-05-09T05:20:57.034Z,51.7
2024-05-09T05:22:06.046Z,52
2024-05-09T05:23:16.972Z,51.6
2024-05-09T05:24:26.020Z,51.4
2024-05-09T05:25:35.978Z,51.4
2024-05-09T05:26:46.256Z,51.6
2024-05-09T05:27:56.132Z,51.9
2024-05-09T05:29:06.035Z,52
2024-05-09T05:30:28.523Z,51.5
2024-05-09T05:31:33.031Z,51.3
2024-05-09T05:32:43.212Z,51.4
2024-05-09T05:33:53.191Z,51.7
2024-05-09T05:35:03.100Z,52
2024-05-09T05:36:12.880Z,51.7
2024-05-09T05:37:22.872Z,51.4
2024-05-09T05:38:33.100Z,51.3
2024-05-09T05:39:42.871Z,51.5
2024-05-09T05:40:52.946Z,51.8
2024-05-09T05:42:03.082Z,51.9
2024-05-09T05:43:12.862Z,51.5
2024-05-09T05:44:22.896Z,51.2
2024-05-09T05:45:32.840Z,51.4
2024-05-09T05:46:42.877Z,51.6
2024-05-09T05:47:53.497Z,51.9
2024-05-09T05:49:03.140Z,51.8
2024-05-09T05:50:27.793Z,51.4
2024-05-09T05:51:35.160Z,51.4
2024-05-09T05:52:45.311Z,51.5
2024-05-09T05:53:55.296Z,51.8
2024-05-09T05:55:05.167Z,51.9
2024-05-09T05:56:15.289Z,51.4
2024-05-09T05:57:25.154Z,51.2
2024-05-09T05:58:35.145Z,51.3
2024-05-09T05:59:45.330Z,51.6
2024-05-09T06:00:55.313Z,51.8
2024-05-09T06:02:05.469Z,51.7
2024-05-09T06:03:15.626Z,51.4
2024-05-09T06:04:25.330Z,51.3
2024-05-09T06:05:35.380Z,51.5
2024-05-09T06:06:45.139Z,51.7
2024-05-09T06:07:55.325Z,51.9
2024-05-09T06:09:05.161Z,51.5
2024-05-09T06:10:25.909Z,51.3
2024-05-09T06:11:31.161Z,51.4
2024-05-09T06:12:40.783Z,51.6
2024-05-09T06:13:50.947Z,51.9
2024-05-09T06:15:00.820Z,51.8
2024-05-09T06:16:10.782Z,51.3
2024-05-09T06:17:21.153Z,51.2
2024-05-09T06:18:31.245Z,51.4
2024-05-09T06:19:40.994Z,51.6
2024-05-09T06:20:51.015Z,51.9
2024-05-09T06:22:01.024Z,51.6
2024-05-09T06:23:11.437Z,51.2
2024-05-09T06:24:20.799Z,51.2
2024-05-09T06:25:30.779Z,51.4
2024-05-09T06:26:40.891Z,51.7
2024-05-09T06:27:50.784Z,51.9
2024-05-09T06:29:01.486Z,51.5
2024-05-09T06:30:29.406Z,51.2
2024-05-09T06:31:35.541Z,51.4
2024-05-09T06:32:45.858Z,51.6
2024-05-09T06:33:55.974Z,51.9
2024-05-09T06:35:05.630Z,51.6
2024-05-09T06:36:15.550Z,51.2
2024-05-09T06:37:25.560Z,51.1
2024-05-09T06:38:35.952Z,51.4
2024-05-09T06:39:45.540Z,51.6
2024-05-09T06:40:55.646Z,51.9
2024-05-09T06:42:05.565Z,51.6
2024-05-09T06:43:19.436Z,51.1
2024-05-09T06:44:25.674Z,51.1
2024-05-09T06:45:35.763Z,51.3
2024-05-09T06:46:45.786Z,51.6
2024-05-09T06:47:56.175Z,51.9
2024-05-09T06:49:06.242Z,51.6
2024-05-09T06:50:27.832Z,51.2
2024-05-09T06:51:31.517Z,51.2
2024-05-09T06:52:41.479Z,51.4
2024-05-09T06:53:51.499Z,51.7
2024-05-09T06:55:01.490Z,51.8
2024-05-09T06:56:11.744Z,51.4
2024-05-09T06:57:21.541Z,51.1
2024-05-09T06:58:31.670Z,51.2
2024-05-09T06:59:41.686Z,51.4
2024-05-09T07:00:51.893Z,51.7
2024-05-09T07:02:01.674Z,51.7
2024-05-09T07:03:15.322Z,51.3
2024-05-09T07:04:21.778Z,51.1
2024-05-09T07:05:31.857Z,51.2
2024-05-09T07:06:41.635Z,51.5
2024-05-09T07:07:52.074Z,51.8
2024-05-09T07:09:01.772Z,51.7
2024-05-09T07:10:25.687Z,51.2
2024-05-09T07:11:33.120Z,51.1
2024-05-09T07:12:42.893Z,51.2
2024-05-09T07:13:53.068Z,51.5
2024-05-09T07:15:02.920Z,51.8
2024-05-09T07:16:13.013Z,51.6
2024-05-09T07:17:23.112Z,51.2
2024-05-09T07:18:33.334Z,51.2
2024-05-09T07:19:43.048Z,51.4
2024-05-09T07:20:52.989Z,51.6
2024-05-09T07:22:02.874Z,51.9
2024-05-09T07:23:13.468Z,51.5
2024-05-09T07:24:22.919Z,51.1
2024-05-09T07:25:32.872Z,51.2
2024-05-09T07:26:43.033Z,51.4
2024-05-09T07:27:52.874Z,51.7
2024-05-09T07:29:03.007Z,51.9
2024-05-09T07:30:23.685Z,51.4
2024-05-09T07:31:30.999Z,51.2
2024-05-09T07:32:41.214Z,51.3
2024-05-09T07:33:51.400Z,51.5
2024-05-09T07:35:01.190Z,51.8
2024-05-09T07:36:10.979Z,51.8
2024-05-09T07:37:20.976Z,51.3
2024-05-09T07:38:31.220Z,51.2
2024-05-09T07:39:41.046Z,51.4
2024-05-09T07:40:51.207Z,51.6
2024-05-09T07:42:00.990Z,51.9
2024-05-09T07:43:11.000Z,51.7
2024-05-09T07:44:21.414Z,51.3
2024-05-09T07:45:52.905Z,51.2
2024-05-09T07:49:44.943Z,51.4
2024-05-09T07:53:41.035Z,51.3
2024-05-09T07:54:45.504Z,51.7
2024-05-09T07:55:56.263Z,51.9
2024-05-09T07:57:05.487Z,51.5
2024-05-09T07:58:15.134Z,51.3
2024-05-09T07:59:25.149Z,51.4
2024-05-09T08:00:35.430Z,51.6
2024-05-09T08:01:45.572Z,51.9
2024-05-09T08:02:55.297Z,51.8
2024-05-09T08:04:05.438Z,51.4
2024-05-09T08:05:15.364Z,51.3
2024-05-09T08:06:25.142Z,51.4
2024-05-09T08:07:35.309Z,51.6
2024-05-09T08:08:45.878Z,51.9
2024-05-09T08:09:55.355Z,51.8
2024-05-09T08:11:05.384Z,51.3
2024-05-09T08:12:15.156Z,51.2
2024-05-09T08:13:25.323Z,51.4
2024-05-09T08:14:35.133Z,51.6
2024-05-09T08:15:45.505Z,51.9
2024-05-09T08:16:55.240Z,51.7
2024-05-09T08:18:05.584Z,51.4
2024-05-09T08:19:15.607Z,51.3
2024-05-09T08:20:35.143Z,51.5
2024-05-09T08:21:36.133Z,51.7
2024-05-09T08:22:45.966Z,52
2024-05-09T08:23:55.946Z,51.7
2024-05-09T08:25:06.415Z,51.4
2024-05-09T08:26:15.952Z,51.4
2024-05-09T08:27:25.954Z,51.6
2024-05-09T08:28:36.368Z,51.8
2024-05-09T08:29:46.029Z,52
2024-05-09T08:30:57.269Z,51.5
2024-05-09T08:32:06.232Z,51.4
2024-05-09T08:33:16.557Z,51.5
2024-05-09T08:34:26.682Z,51.6
2024-05-09T08:35:36.548Z,51.9
2024-05-09T08:36:46.064Z,51.9
2024-05-09T08:37:56.344Z,51.5
2024-05-09T08:39:05.944Z,51.4
2024-05-09T08:40:30.924Z,51.5
2024-05-09T08:41:35.943Z,51.8
2024-05-09T08:42:45.682Z,52.1
2024-05-09T08:43:55.490Z,51.8
2024-05-09T08:45:05.490Z,51.5
2024-05-09T08:46:16.002Z,51.4
2024-05-09T08:47:25.793Z,51.6
2024-05-09T08:48:36.151Z,51.9
2024-05-09T08:49:45.552Z,52.1
2024-05-09T08:50:55.815Z,51.8
2024-05-09T08:52:05.786Z,51.5
2024-05-09T08:53:16.046Z,51.5
2024-05-09T08:54:25.454Z,51.6
2024-05-09T08:55:39.463Z,51.9
2024-05-09T08:56:45.458Z,52.1
2024-05-09T08:57:55.796Z,51.9
2024-05-09T08:59:05.446Z,51.6
2024-05-09T09:00:29.842Z,51.6
2024-05-09T09:01:39.998Z,51.8
2024-05-09T09:02:46.867Z,52.1
2024-05-09T09:03:57.055Z,52.2
2024-05-09T09:05:06.961Z,51.8
2024-05-09T09:06:16.649Z,51.6
2024-05-09T09:07:27.310Z,51.7
2024-05-09T09:08:37.049Z,51.9
2024-05-09T09:09:46.814Z,52.2
2024-05-09T09:10:56.914Z,52.2
2024-05-09T09:12:10.586Z,51.7
2024-05-09T09:13:17.250Z,51.6
2024-05-09T09:14:26.622Z,51.7
2024-05-09T09:15:37.378Z,51.9
2024-05-09T09:16:46.642Z,52.1
2024-05-09T09:17:56.942Z,52.3
2024-05-09T09:19:07.037Z,51.8
2024-05-09T09:20:29.484Z,51.7
2024-05-09T09:21:36.338Z,51.8
2024-05-09T09:22:46.161Z,52
2024-05-09T09:23:56.205Z,52.2
2024-05-09T09:25:06.500Z,52.2
2024-05-09T09:26:16.309Z,51.9
2024-05-09T09:27:26.188Z,51.8
2024-05-09T09:28:36.165Z,51.9
2024-05-09T09:29:46.159Z,52.2
2024-05-09T09:30:56.281Z,52.4
2024-05-09T09:32:06.172Z,52
2024-05-09T09:33:16.915Z,51.8
2024-05-09T09:34:26.481Z,51.8
2024-05-09T09:35:36.233Z,52
2024-05-09T09:36:46.213Z,52.2
2024-05-09T09:37:56.156Z,52.4
2024-05-09T09:39:06.159Z,52
2024-05-09T09:40:18.744Z,51.8
2024-05-09T09:41:26.173Z,51.9
2024-05-09T09:42:36.311Z,52.1
2024-05-09T09:43:46.153Z,52.3
2024-05-09T09:45:05.772Z,52.4
2024-05-09T09:46:11.802Z,52
2024-05-09T09:47:16.653Z,51.8
2024-05-09T09:48:26.566Z,51.9
2024-05-09T09:49:36.541Z,52.1
2024-05-09T09:50:46.356Z,52.4
2024-05-09T09:51:56.884Z,52.5
2024-05-09T09:53:06.339Z,52.1
2024-05-09T09:54:16.875Z,51.9
2024-05-09T09:55:26.491Z,51.9
2024-05-09T09:56:36.666Z,52.1
2024-05-09T09:57:46.601Z,52.4
2024-05-09T09:58:56.380Z,52.5
2024-05-09T10:00:14.577Z,52.1
2024-05-09T10:01:18.304Z,51.9
2024-05-09T10:02:28.203Z,52
2024-05-09T10:03:38.572Z,52.2
2024-05-09T10:04:48.215Z,52.3
2024-05-09T10:05:58.049Z,52.5
2024-05-09T10:07:08.051Z,52
2024-05-09T10:08:17.993Z,51.8
2024-05-09T10:09:28.003Z,51.8
2024-05-09T10:10:38.154Z,52
2024-05-09T10:11:57.982Z,52.2
2024-05-09T10:13:00.997Z,52.4
2024-05-09T10:14:10.387Z,52
2024-05-09T10:15:20.401Z,51.7
2024-05-09T10:16:30.422Z,51.8
2024-05-09T10:17:40.457Z,52
2024-05-09T10:18:50.700Z,52.2
2024-05-09T10:20:00.344Z,52.3
2024-05-09T10:21:10.197Z,51.9
2024-05-09T10:22:20.530Z,51.7
2024-05-09T10:23:30.693Z,51.7
2024-05-09T10:24:40.728Z,51.8
2024-05-09T10:25:50.437Z,52.1
2024-05-09T10:27:00.471Z,52.2
2024-05-09T10:28:10.830Z,51.8
2024-05-09T10:29:20.191Z,51.5
2024-05-09T10:30:36.887Z,51.4
2024-05-09T10:31:40.880Z,51.6
2024-05-09T10:32:50.557Z,51.8
2024-05-09T10:34:00.909Z,52
2024-05-09T10:35:10.337Z,51.9
2024-05-09T10:36:20.724Z,51.5
2024-05-09T10:37:30.664Z,51.4
2024-05-09T10:38:40.553Z,51.5
2024-05-09T10:39:50.645Z,51.7
2024-05-09T10:41:01.463Z,51.9
2024-05-09T10:42:10.186Z,51.7
2024-05-09T10:43:21.039Z,51.4
2024-05-09T10:44:30.287Z,51.3
2024-05-09T10:45:40.227Z,51.5
2024-05-09T10:46:50.166Z,51.7
2024-05-09T10:48:00.679Z,51.9
2024-05-09T10:49:10.366Z,51.5
2024-05-09T10:50:32.037Z,51.2
2024-05-09T10:51:34.844Z,51.2
2024-05-09T10:52:44.680Z,51.4
2024-05-09T10:53:54.820Z,51.6
2024-05-09T10:55:06.159Z,51.8
2024-05-09T10:56:15.014Z,51.5
2024-05-09T10:57:24.767Z,51.2
2024-05-09T10:58:35.275Z,51.2
2024-05-09T10:59:44.681Z,51.4
2024-05-09T11:00:55.095Z,51.6
2024-05-09T11:02:05.037Z,51.8
2024-05-09T11:03:14.956Z,51.5
2024-05-09T11:04:25.005Z,51.2
2024-05-09T11:05:35.087Z,51.2
2024-05-09T11:06:44.784Z,51.3
2024-05-09T11:07:54.674Z,51.5
2024-05-09T11:09:04.680Z,51.7
2024-05-09T11:10:24.784Z,51.6
2024-05-09T11:11:28.592Z,51.3
2024-05-09T11:12:38.516Z,51.2
2024-05-09T11:13:48.258Z,51.4
2024-05-09T11:14:58.449Z,51.5
2024-05-09T11:16:08.427Z,51.8
2024-05-09T11:17:18.639Z,51.5
2024-05-09T11:18:34.925Z,51.2
2024-05-09T11:19:38.762Z,51.1
2024-05-09T11:20:48.464Z,51.1
2024-05-09T11:21:58.479Z,51.2
2024-05-09T11:23:08.438Z,51.4
2024-05-09T11:24:18.234Z,51
2024-05-09T11:25:28.293Z,50.6
2024-05-09T11:26:38.296Z,50.5
2024-05-09T11:27:48.465Z,50.6
2024-05-09T11:28:58.254Z,50.7
2024-05-09T11:30:24.138Z,50.7
2024-05-09T11:31:30.600Z,50.2
2024-05-09T11:32:40.604Z,50.1
2024-05-09T11:33:50.632Z,50
2024-05-09T11:35:00.325Z,50.2
2024-05-09T11:36:10.292Z,50.3
2024-05-09T11:37:20.450Z,50
2024-05-09T11:38:30.224Z,49.6
2024-05-09T11:39:40.478Z,49.5
2024-05-09T11:40:50.437Z,49.5
2024-05-09T11:42:00.247Z,49.7
2024-05-09T11:43:10.448Z,49.9
2024-05-09T11:44:20.538Z,49.5
2024-05-09T11:45:30.478Z,49.2
2024-05-09T11:46:40.251Z,49.1
2024-05-09T11:47:50.489Z,49.2
2024-05-09T11:49:00.771Z,49.4
2024-05-09T11:50:22.420Z,49.4
2024-05-09T11:51:27.968Z,48.9
2024-05-09T11:52:37.797Z,48.7
2024-05-09T11:53:47.788Z,48.7
2024-05-09T11:54:57.993Z,48.8
2024-05-09T11:56:07.810Z,49
2024-05-09T11:57:17.784Z,48.9
2024-05-09T11:58:28.039Z,48.5
2024-05-09T11:59:37.835Z,48.3
2024-05-09T12:00:48.051Z,48.4
2024-05-09T12:01:58.051Z,48.5
2024-05-09T12:03:08.021Z,48.7
2024-05-09T12:04:18.940Z,48.6
2024-05-09T12:05:28.206Z,48.2
2024-05-09T12:06:38.241Z,48.1
2024-05-09T12:07:47.780Z,48.2
2024-05-09T12:08:57.837Z,48.3
2024-05-09T12:10:19.518Z,48.5
2024-05-09T12:11:23.181Z,48.2
2024-05-09T12:12:37.288Z,47.8
2024-05-09T12:13:42.870Z,47.8
2024-05-09T12:14:52.991Z,47.9
2024-05-09T12:16:03.135Z,48.1
2024-05-09T12:17:13.038Z,48.3
2024-05-09T12:18:23.032Z,48
2024-05-09T12:19:33.143Z,47.6
2024-05-09T12:20:42.999Z,47.6
2024-05-09T12:21:53.076Z,47.8
2024-05-09T12:23:02.860Z,48
2024-05-09T12:24:17.701Z,48
2024-05-09T12:25:23.138Z,47.7
2024-05-09T12:26:32.832Z,47.5
2024-05-09T12:27:43.072Z,47.6
2024-05-09T12:28:52.825Z,47.7
2024-05-09T12:30:04.582Z,48
2024-05-09T12:31:12.984Z,47.9
2024-05-09T12:32:23.084Z,47.5
2024-05-09T12:33:33.220Z,47.3
2024-05-09T12:34:42.873Z,47.5
2024-05-09T12:35:52.803Z,47.6
2024-05-09T12:37:03.037Z,47.8
2024-05-09T12:38:13.147Z,47.7
2024-05-09T12:39:22.815Z,47.3
2024-05-09T12:40:38.910Z,47.2
2024-05-09T12:41:43.056Z,47.3
2024-05-09T12:42:53.015Z,47.5
2024-05-09T12:44:02.821Z,47.7
2024-05-09T12:45:13.363Z,47.6
2024-05-09T12:46:23.387Z,47.2
2024-05-09T12:47:33.202Z,47.1
2024-05-09T12:48:43.089Z,47.3
2024-05-09T12:49:53.479Z,47.5
2024-05-09T12:51:03.819Z,47.6
2024-05-09T12:52:13.891Z,47.3
2024-05-09T12:53:22.804Z,47
2024-05-09T12:54:32.939Z,47
2024-05-09T12:55:56.814Z,47.1
2024-05-09T12:57:00.662Z,47.3
2024-05-09T12:58:10.768Z,47.5
2024-05-09T12:59:20.543Z,47.2
2024-05-09T13:00:34.665Z,47
2024-05-09T13:01:40.779Z,47
2024-05-09T13:02:50.686Z,47.1
2024-05-09T13:04:01.061Z,47.4
2024-05-09T13:05:11.047Z,47.5
2024-05-09T13:06:20.536Z,47.1
2024-05-09T13:07:30.505Z,46.8
2024-05-09T13:08:40.514Z,46.9
2024-05-09T13:09:50.734Z,47
2024-05-09T13:11:00.514Z,47.2
2024-05-09T13:12:10.949Z,47.5
2024-05-09T13:13:20.732Z,47.2
2024-05-09T13:14:31.958Z,46.9
2024-05-09T13:15:40.906Z,46.9
2024-05-09T13:16:50.702Z,47
2024-05-09T13:18:04.361Z,47.2
2024-05-09T13:19:10.674Z,47.4
2024-05-09T13:20:33.266Z,47.2
2024-05-09T13:21:35.964Z,46.9
2024-05-09T13:22:46.636Z,46.9
2024-05-09T13:24:00.316Z,47
2024-05-09T13:25:06.144Z,47.2
2024-05-09T13:26:18.532Z,47.3
2024-05-09T13:27:25.831Z,47
2024-05-09T13:28:36.279Z,46.8
2024-05-09T13:29:46.120Z,46.8
2024-05-09T13:30:59.534Z,47
2024-05-09T13:32:06.081Z,47.1
2024-05-09T13:33:16.334Z,47.2
2024-05-09T13:34:26.080Z,46.9
2024-05-09T13:35:36.578Z,46.7
2024-05-09T13:36:46.038Z,46.8
2024-05-09T13:37:55.824Z,46.9
2024-05-09T13:39:05.824Z,47.1
2024-05-09T13:40:29.917Z,47.2
2024-05-09T13:41:34.636Z,46.9
2024-05-09T13:42:48.920Z,46.7
2024-05-09T13:43:54.811Z,46.8
2024-05-09T13:45:04.477Z,46.9
2024-05-09T13:46:14.785Z,47.2
2024-05-09T13:47:25.081Z,47.2
2024-05-09T13:48:34.728Z,47
2024-05-09T13:49:44.735Z,46.8
2024-05-09T13:50:55.881Z,46.8
2024-05-09T13:52:04.847Z,47
2024-05-09T13:53:14.679Z,47.2
2024-05-09T13:54:24.578Z,47.3
2024-05-09T13:55:34.722Z,46.9
2024-05-09T13:56:44.484Z,46.7
2024-05-09T13:57:54.823Z,46.8
2024-05-09T13:59:04.537Z,46.9
2024-05-09T14:00:39.200Z,47.1
2024-05-09T14:01:45.604Z,47.2
2024-05-09T14:02:55.704Z,46.8
2024-05-09T14:04:05.721Z,46.7
2024-05-09T14:05:16.161Z,46.8
2024-05-09T14:06:25.446Z,46.9
2024-05-09T14:07:35.366Z,47.2
2024-05-09T14:08:45.342Z,47.2
2024-05-09T14:09:55.532Z,46.9
2024-05-09T14:11:05.573Z,46.8
2024-05-09T14:12:15.340Z,46.9
2024-05-09T14:13:25.720Z,47
2024-05-09T14:14:35.820Z,47.2
2024-05-09T14:15:46.054Z,47.3
2024-05-09T14:16:56.017Z,47
2024-05-09T14:18:06.252Z,46.8
2024-05-09T14:19:16.002Z,47
2024-05-09T14:20:32.731Z,47.2
2024-05-09T14:21:35.793Z,47.4
2024-05-09T14:22:45.550Z,47.6
2024-05-09T14:23:55.829Z,47.3
2024-05-09T14:25:05.451Z,47.2
2024-05-09T14:26:15.328Z,47.2
2024-05-09T14:27:25.319Z,47.3
2024-05-09T14:28:35.432Z,47.5
2024-05-09T14:29:45.315Z,47.8
2024-05-09T14:30:55.463Z,47.7
2024-05-09T14:32:05.522Z,47.4
2024-05-09T14:33:15.983Z,47.4
2024-05-09T14:34:25.996Z,47.5
2024-05-09T14:35:35.505Z,47.7
2024-05-09T14:36:45.572Z,47.9
2024-05-09T14:37:55.871Z,48
2024-05-09T14:39:05.701Z,47.7
2024-05-09T14:40:39.402Z,47.6
2024-05-09T14:41:43.449Z,47.8
2024-05-09T14:42:53.698Z,48
2024-05-09T14:44:03.462Z,48.2
2024-05-09T14:45:13.969Z,48
2024-05-09T14:46:23.905Z,47.8
2024-05-09T14:47:33.918Z,47.8
2024-05-09T14:48:43.606Z,48
2024-05-09T14:49:53.730Z,48.1
2024-05-09T14:51:03.441Z,48.3
2024-05-09T14:52:13.729Z,48.3
2024-05-09T14:53:23.688Z,48
2024-05-09T14:54:33.600Z,48
2024-05-09T14:55:44.442Z,48
2024-05-09T14:56:53.467Z,48.2
2024-05-09T14:58:03.772Z,48.4
2024-05-09T14:59:13.445Z,48.6
2024-05-09T15:00:33.590Z,48.3
2024-05-09T15:01:36.620Z,48.1
2024-05-09T15:02:49.727Z,48.2
2024-05-09T15:03:56.792Z,48.3
2024-05-09T15:05:06.666Z,48.5
2024-05-09T15:06:16.501Z,48.7
2024-05-09T15:07:26.519Z,48.5
2024-05-09T15:08:36.416Z,48.2
2024-05-09T15:09:46.586Z,48.2
2024-05-09T15:10:56.777Z,48.3
2024-05-09T15:12:06.439Z,48.5
2024-05-09T15:13:17.549Z,48.7
2024-05-09T15:14:26.436Z,48.8
2024-05-09T15:15:36.655Z,48.4
2024-05-09T15:16:46.451Z,48.4
2024-05-09T15:17:56.751Z,48.6
2024-05-09T15:19:06.767Z,48.9
2024-05-09T15:20:24.390Z,49.1
2024-05-09T15:21:32.035Z,49.3
2024-05-09T15:22:41.854Z,49.1
2024-05-09T15:23:51.879Z,49.1
2024-05-09T15:25:02.085Z,49.2
2024-05-09T15:26:11.881Z,49.5
2024-05-09T15:27:22.044Z,49.7
2024-05-09T15:28:31.880Z,49.7
2024-05-09T15:29:41.894Z,49.6
2024-05-09T15:30:51.887Z,49.6
2024-05-09T15:32:02.037Z,49.8
2024-05-09T15:33:12.073Z,50
2024-05-09T15:34:22.449Z,50.1
2024-05-09T15:35:32.370Z,50
2024-05-09T15:36:43.559Z,49.8
2024-05-09T15:37:52.136Z,49.9
2024-05-09T15:39:02.156Z,50
2024-05-09T15:40:26.073Z,50.3
2024-05-09T15:41:35.967Z,50.5
2024-05-09T15:42:45.923Z,50.4
2024-05-09T15:43:55.819Z,50.3
2024-05-09T15:45:05.936Z,50.3
2024-05-09T15:46:15.836Z,50.5
2024-05-09T15:47:25.633Z,50.6
2024-05-09T15:48:36.097Z,50.8